createdAt,value
2018-10-06T00:01:27.229Z,23.28
2018-10-06T00:03:57.858Z,23.27
2018-10-06T00:06:28.007Z,23.27
2018-10-06T00:08:58.211Z,23.28
2018-10-06T00:11:28.635Z,23.28
2018-10-06T00:14:00.396Z,23.28
2018-10-06T00:16:30.618Z,23.28
2018-10-06T00:19:01.457Z,23.28
2018-10-06T00:21:31.675Z,23.30
2018-10-06T00:24:01.901Z,23.30
2018-10-06T00:26:32.325Z,23.31
2018-10-06T00:29:02.653Z,23.31
2018-10-06T00:31:32.993Z,23.32
2018-10-06T00:34:03.709Z,23.30
2018-10-06T00:36:34.185Z,23.32
2018-10-06T00:39:05.389Z,23.33
2018-10-06T00:41:36.632Z,23.32
2018-10-06T00:45:36.454Z,23.33
2018-10-06T00:48:07.808Z,23.32
2018-10-06T00:50:37.826Z,23.30
2018-10-06T00:53:09.378Z,23.31
2018-10-06T00:55:40.012Z,23.32
2018-10-06T00:58:10.543Z,23.32
2018-10-06T01:00:41.274Z,23.32
2018-10-06T01:03:11.910Z,23.32
2018-10-06T01:05:42.027Z,23.32
2018-10-06T01:08:12.466Z,23.32
2018-10-06T01:10:42.992Z,23.33
2018-10-06T01:13:13.403Z,23.34
2018-10-06T01:15:44.863Z,23.34
2018-10-06T01:18:15.300Z,23.34
2018-10-06T01:20:45.517Z,23.34
2018-10-06T01:23:16.045Z,23.34
2018-10-06T01:25:46.576Z,23.34
2018-10-06T01:28:17.004Z,23.34
2018-10-06T01:30:47.334Z,23.33
2018-10-06T01:33:18.065Z,23.34
2018-10-06T01:35:48.695Z,23.33
2018-10-06T01:38:19.553Z,23.33
2018-10-06T01:40:50.168Z,23.34
2018-10-06T01:43:21.208Z,23.33
2018-10-06T01:45:51.745Z,23.33
2018-10-06T01:48:22.573Z,23.33
2018-10-06T01:50:53.601Z,23.34
2018-10-06T01:53:23.948Z,23.33
2018-10-06T01:55:54.372Z,23.33
2018-10-06T01:58:24.597Z,23.32
2018-10-06T02:00:55.238Z,23.32
2018-10-06T02:03:25.965Z,23.32
2018-10-06T02:05:56.293Z,23.32
2018-10-06T02:08:26.920Z,23.32
2018-10-06T02:10:57.656Z,23.33
2018-10-06T02:13:27.768Z,23.33
2018-10-06T02:15:58.311Z,23.33
2018-10-06T02:18:29.250Z,23.33
2018-10-06T02:20:59.983Z,23.32
2018-10-06T02:23:30.713Z,23.32
2018-10-06T02:26:01.852Z,23.32
2018-10-06T02:28:33.020Z,23.33
2018-10-06T02:31:03.643Z,23.32
2018-10-06T02:33:34.270Z,23.32
2018-10-06T02:36:04.897Z,23.33
2018-10-06T02:38:35.254Z,23.32
2018-10-06T02:41:06.781Z,23.32
2018-10-06T02:43:37.122Z,23.32
2018-10-06T02:46:07.535Z,23.33
2018-10-06T02:48:37.983Z,23.34
2018-10-06T02:51:08.501Z,23.33
2018-10-06T02:53:38.825Z,23.35
2018-10-06T02:56:09.145Z,23.34
2018-10-06T02:58:40.195Z,23.35
2018-10-06T03:01:12.049Z,23.35
2018-10-06T03:03:42.489Z,23.36
2018-10-06T03:06:13.096Z,23.35
2018-10-06T03:08:43.643Z,23.36
2018-10-06T03:11:14.107Z,23.36
2018-10-06T03:13:44.500Z,23.37
2018-10-06T03:16:15.121Z,23.36
2018-10-06T03:18:46.074Z,23.38
2018-10-06T03:21:16.705Z,23.38
2018-10-06T03:23:48.461Z,23.37
2018-10-06T03:26:18.996Z,23.37
2018-10-06T03:28:49.519Z,23.38
2018-10-06T03:31:21.278Z,23.39
2018-10-06T03:33:52.205Z,23.38
2018-10-06T03:36:22.853Z,23.38
2018-10-06T03:38:53.481Z,23.38
2018-10-06T03:41:24.833Z,23.38
2018-10-06T03:43:55.057Z,23.38
2018-10-06T03:46:25.377Z,23.39
2018-10-06T03:48:56.012Z,23.40
2018-10-06T03:51:26.851Z,23.40
2018-10-06T03:53:57.084Z,23.39
2018-10-06T03:56:27.602Z,23.39
2018-10-06T03:58:58.337Z,23.40
2018-10-06T04:01:28.875Z,23.40
2018-10-06T04:03:59.813Z,23.40
2018-10-06T04:06:30.850Z,23.40
2018-10-06T04:09:01.275Z,23.39
2018-10-06T04:11:32.522Z,23.39
2018-10-06T04:14:03.056Z,23.39
2018-10-06T04:16:33.480Z,23.39
2018-10-06T04:19:04.227Z,23.39
2018-10-06T04:21:39.568Z,23.39
2018-10-06T04:24:10.294Z,23.40
2018-10-06T04:26:40.831Z,23.39
2018-10-06T04:29:11.867Z,23.39
2018-10-06T04:31:42.397Z,23.39
2018-10-06T04:34:12.932Z,23.39
2018-10-06T04:36:43.766Z,23.39
2018-10-06T04:39:14.709Z,23.38
2018-10-06T04:41:45.631Z,23.38
2018-10-06T04:44:16.677Z,23.39
2018-10-06T04:46:47.524Z,23.38
2018-10-06T04:49:18.467Z,23.38
2018-10-06T04:51:49.410Z,23.38
2018-10-06T04:54:19.832Z,23.38
2018-10-06T04:56:50.766Z,23.39
2018-10-06T04:59:21.305Z,23.39
2018-10-06T05:01:51.954Z,23.38
2018-10-06T05:04:22.671Z,23.38
2018-10-06T05:06:53.917Z,23.38
2018-10-06T05:09:24.851Z,23.37
2018-10-06T05:11:55.708Z,23.38
2018-10-06T05:14:25.920Z,23.38
2018-10-06T05:16:56.830Z,23.39
2018-10-06T05:19:27.691Z,23.39
2018-10-06T05:21:57.908Z,23.38
2018-10-06T05:24:28.143Z,23.39
2018-10-06T05:26:59.182Z,23.39
2018-10-06T05:29:29.945Z,23.39
2018-10-06T05:32:00.246Z,23.40
2018-10-06T05:34:30.981Z,23.39
2018-10-06T05:37:01.313Z,23.40
2018-10-06T05:39:32.028Z,23.40
2018-10-06T05:42:03.189Z,23.40
2018-10-06T05:44:33.819Z,23.40
2018-10-06T05:47:04.548Z,23.40
2018-10-06T05:49:35.385Z,23.41
2018-10-06T05:52:06.437Z,23.41
2018-10-06T05:54:37.278Z,23.41
2018-10-06T05:57:08.306Z,23.41
2018-10-06T06:01:08.238Z,23.42
2018-10-06T06:03:38.667Z,23.40
2018-10-06T06:06:08.888Z,23.39
2018-10-06T06:08:40.131Z,23.39
2018-10-06T06:11:10.557Z,23.39
2018-10-06T06:13:41.091Z,23.39
2018-10-06T06:16:11.735Z,23.39
2018-10-06T06:18:41.947Z,23.40
2018-10-06T06:21:12.173Z,23.40
2018-10-06T06:23:43.117Z,23.40
2018-10-06T06:26:14.050Z,23.40
2018-10-06T06:28:44.374Z,23.40
2018-10-06T06:31:15.656Z,23.40
2018-10-06T06:33:46.148Z,23.40
2018-10-06T06:36:16.781Z,23.41
2018-10-06T06:38:47.518Z,23.41
2018-10-06T06:41:19.075Z,23.41
2018-10-06T06:43:49.952Z,23.40
2018-10-06T06:46:20.432Z,23.41
2018-10-06T06:48:50.976Z,23.42
2018-10-06T06:51:22.223Z,23.41
2018-10-06T06:53:52.852Z,23.41
2018-10-06T06:56:23.487Z,23.42
2018-10-06T06:58:54.328Z,23.41
2018-10-06T07:01:25.503Z,23.42
2018-10-06T07:03:55.689Z,23.42
2018-10-06T07:06:26.741Z,23.41
2018-10-06T07:08:57.465Z,23.41
2018-10-06T07:11:28.102Z,23.41
2018-10-06T07:13:58.829Z,23.42
2018-10-06T07:16:29.876Z,23.41
2018-10-06T07:19:00.411Z,23.41
2018-10-06T07:21:31.556Z,23.40
2018-10-06T07:24:02.185Z,23.41
2018-10-06T07:26:33.238Z,23.41
2018-10-06T07:29:05.499Z,23.41
2018-10-06T07:31:36.231Z,23.41
2018-10-06T07:34:06.867Z,23.41
2018-10-06T07:36:37.300Z,23.41
2018-10-06T07:39:08.746Z,23.41
2018-10-06T07:41:38.969Z,23.42
2018-10-06T07:44:09.607Z,23.42
2018-10-06T07:46:40.231Z,23.42
2018-10-06T07:49:10.980Z,23.40
2018-10-06T07:51:41.817Z,23.42
2018-10-06T07:54:12.130Z,23.42
2018-10-06T07:56:42.684Z,23.41
2018-10-06T07:59:13.044Z,23.42
2018-10-06T08:01:43.617Z,23.43
2018-10-06T08:04:13.740Z,23.43
2018-10-06T08:06:44.060Z,23.46
2018-10-06T08:09:15.002Z,23.47
2018-10-06T08:11:45.732Z,23.49
2018-10-06T08:14:16.065Z,23.50
2018-10-06T08:16:46.696Z,23.51
2018-10-06T08:19:17.530Z,23.52
2018-10-06T08:21:48.066Z,23.53
2018-10-06T08:24:18.488Z,23.55
2018-10-06T08:26:49.633Z,23.56
2018-10-06T08:29:20.375Z,23.58
2018-10-06T08:31:50.901Z,23.60
2018-10-06T08:34:21.634Z,23.62
2018-10-06T08:36:51.652Z,23.64
2018-10-06T08:39:22.592Z,23.65
2018-10-06T08:41:53.025Z,23.67
2018-10-06T08:44:23.250Z,23.68
2018-10-06T08:46:53.984Z,23.68
2018-10-06T08:49:24.306Z,23.69
2018-10-06T08:51:54.534Z,23.71
2018-10-06T08:54:24.746Z,23.72
2018-10-06T08:56:55.178Z,23.74
2018-10-06T08:59:25.305Z,23.76
2018-10-06T09:01:55.629Z,23.76
2018-10-06T09:04:26.241Z,23.78
2018-10-06T09:06:56.889Z,23.75
2018-10-06T09:09:27.311Z,23.80
2018-10-06T09:11:58.049Z,23.79
2018-10-06T09:14:28.791Z,23.79
2018-10-06T09:16:58.908Z,23.80
2018-10-06T09:19:29.541Z,23.81
2018-10-06T09:32:02.296Z,23.81
2018-10-06T09:34:32.518Z,23.80
2018-10-06T09:37:03.668Z,23.80
2018-10-06T09:39:34.089Z,23.81
2018-10-06T09:42:04.748Z,23.81
2018-10-06T09:44:35.561Z,23.81
2018-10-06T09:47:06.523Z,23.81
2018-10-06T09:49:36.928Z,23.81
2018-10-06T09:52:07.506Z,23.81
2018-10-06T09:54:37.889Z,23.81
2018-10-06T09:57:08.317Z,23.81
2018-10-06T09:59:38.807Z,23.81
2018-10-06T10:03:13.779Z,23.81
2018-10-06T10:05:46.193Z,23.81
2018-10-06T10:08:16.694Z,23.80
2018-10-06T10:10:48.338Z,23.79
2018-10-06T10:13:20.313Z,23.79
2018-10-06T10:15:51.142Z,23.80
2018-10-06T10:18:21.730Z,23.78
2018-10-06T10:20:52.104Z,23.78
2018-10-06T10:23:23.217Z,23.78
2018-10-06T10:25:53.368Z,23.77
2018-10-06T10:28:24.006Z,23.77
2018-10-06T10:30:54.531Z,23.76
2018-10-06T10:33:24.844Z,23.75
2018-10-06T10:35:55.184Z,23.75
2018-10-06T10:38:25.503Z,23.75
2018-10-06T10:40:55.932Z,23.74
2018-10-06T10:43:26.461Z,23.75
2018-10-06T10:45:56.682Z,23.74
2018-10-06T10:48:27.214Z,23.76
2018-10-06T10:50:57.436Z,23.75
2018-10-06T10:53:27.866Z,23.75
2018-10-06T10:55:58.296Z,23.74
2018-10-06T10:58:28.827Z,23.75
2018-10-06T11:00:59.207Z,23.74
2018-10-06T11:03:30.292Z,23.74
2018-10-06T11:06:00.519Z,23.74
2018-10-06T11:08:30.948Z,23.74
2018-10-06T11:11:01.056Z,23.74
2018-10-06T11:13:31.495Z,23.74
2018-10-06T11:17:31.422Z,23.75
2018-10-06T11:20:02.105Z,23.72
2018-10-06T11:22:32.381Z,23.72
2018-10-06T11:25:02.606Z,23.71
2018-10-06T11:27:32.723Z,23.72
2018-10-06T11:30:04.079Z,23.71
2018-10-06T11:32:34.702Z,23.72
2018-10-06T11:35:05.138Z,23.71
2018-10-06T11:37:35.865Z,23.72
2018-10-06T11:40:06.397Z,23.71
2018-10-06T11:42:37.134Z,23.72
2018-10-06T11:45:07.460Z,23.72
2018-10-06T11:47:38.092Z,23.71
2018-10-06T11:50:08.794Z,23.72
2018-10-06T11:52:39.150Z,23.70
2018-10-06T11:55:09.794Z,23.71
2018-10-06T11:57:40.211Z,23.70
2018-10-06T12:00:10.198Z,23.69
2018-10-06T12:02:40.355Z,23.67
2018-10-06T12:05:10.567Z,23.69
2018-10-06T12:07:41.208Z,23.69
2018-10-06T12:10:11.731Z,23.68
2018-10-06T12:12:42.421Z,23.69
2018-10-06T12:15:12.909Z,23.68
2018-10-06T12:17:43.323Z,23.69
2018-10-06T12:20:13.958Z,23.20
2018-10-06T12:22:44.184Z,23.71
2018-10-06T12:25:14.510Z,23.72
2018-10-06T12:27:45.045Z,23.74
2018-10-06T12:30:15.779Z,23.74
2018-10-06T12:32:47.226Z,23.76
2018-10-06T12:35:17.664Z,23.74
2018-10-06T12:37:48.291Z,23.77
2018-10-06T12:40:18.817Z,23.77
2018-10-06T12:42:49.243Z,23.78
2018-10-06T12:45:19.612Z,23.77
2018-10-06T12:47:49.685Z,23.76
2018-10-06T12:50:20.221Z,23.76
2018-10-06T12:52:51.310Z,23.75
2018-10-06T12:55:21.897Z,23.74
2018-10-06T12:57:52.526Z,23.74
2018-10-06T13:00:23.160Z,23.75
2018-10-06T13:02:53.584Z,23.74
2018-10-06T13:05:23.812Z,23.73
2018-10-06T13:07:54.034Z,23.74
2018-10-06T13:10:24.259Z,23.73
2018-10-06T13:12:54.677Z,23.74
2018-10-06T13:15:25.218Z,23.74
2018-10-06T13:17:55.742Z,23.73
2018-10-06T13:20:26.175Z,23.72
2018-10-06T13:22:56.705Z,23.72
2018-10-06T13:25:27.433Z,23.72
2018-10-06T13:27:57.664Z,23.72
2018-10-06T13:30:28.389Z,23.71
2018-10-06T13:32:58.908Z,23.71
2018-10-06T13:35:30.066Z,23.71
2018-10-06T13:38:00.394Z,23.71
2018-10-06T13:40:31.436Z,23.71
2018-10-06T13:43:01.866Z,23.71
2018-10-06T13:45:32.905Z,23.70
2018-10-06T13:48:03.017Z,23.70
2018-10-06T13:50:33.349Z,23.70
2018-10-06T13:53:03.974Z,23.69
2018-10-06T13:55:34.204Z,23.68
2018-10-06T13:58:05.779Z,23.68
2018-10-06T14:00:36.600Z,23.67
2018-10-06T14:03:07.229Z,23.66
2018-10-06T14:05:37.350Z,23.66
2018-10-06T14:08:08.801Z,23.67
2018-10-06T14:10:39.148Z,23.66
2018-10-06T14:13:09.353Z,23.66
2018-10-06T14:15:39.677Z,23.66
2018-10-06T14:18:10.105Z,23.66
2018-10-06T14:20:40.945Z,23.65
2018-10-06T14:23:11.268Z,23.64
2018-10-06T14:25:41.795Z,23.64
2018-10-06T14:28:12.242Z,23.64
2018-10-06T14:30:42.959Z,23.63
2018-10-06T14:33:14.106Z,23.63
2018-10-06T14:35:44.532Z,23.61
2018-10-06T14:38:15.885Z,23.62
2018-10-06T14:40:47.025Z,23.61
2018-10-06T14:43:17.046Z,23.59
2018-10-06T14:45:47.470Z,23.60
2018-10-06T14:48:18.211Z,23.59
2018-10-06T14:50:48.740Z,23.58
2018-10-06T14:53:19.266Z,23.59
2018-10-06T14:55:49.493Z,23.57
2018-10-06T14:58:19.717Z,23.58
2018-10-06T15:00:49.933Z,23.57
2018-10-06T15:03:20.410Z,23.56
2018-10-06T15:05:51.205Z,23.56
2018-10-06T15:08:21.318Z,23.55
2018-10-06T15:10:52.063Z,23.54
2018-10-06T15:13:23.307Z,23.54
2018-10-06T15:15:54.073Z,23.55
2018-10-06T15:18:25.290Z,23.53
2018-10-06T15:20:55.570Z,23.52
2018-10-06T15:23:26.138Z,23.53
2018-10-06T15:25:56.786Z,23.51
2018-10-06T15:28:27.301Z,23.51
2018-10-06T15:30:57.630Z,23.51
2018-10-06T15:33:27.657Z,23.50
2018-10-06T15:35:58.678Z,23.50
2018-10-06T15:38:29.676Z,23.49
2018-10-06T15:41:00.880Z,23.50
2018-10-06T15:43:31.408Z,23.50
2018-10-06T15:46:02.152Z,23.49
2018-10-06T15:48:32.574Z,23.49
2018-10-06T15:51:02.832Z,23.50
2018-10-06T15:53:34.259Z,23.49
2018-10-06T15:56:05.188Z,23.49
2018-10-06T15:58:36.127Z,23.48
2018-10-06T16:01:06.866Z,23.48
2018-10-06T16:03:37.389Z,23.49
2018-10-06T16:06:08.123Z,23.48
2018-10-06T16:08:40.396Z,23.49
2018-10-06T16:11:10.863Z,23.49
2018-10-06T16:13:41.836Z,23.49
2018-10-06T16:16:12.604Z,23.49
2018-10-06T16:18:43.234Z,23.48
2018-10-06T16:21:13.954Z,23.48
2018-10-06T16:23:44.498Z,23.48
2018-10-06T16:26:14.827Z,23.49
2018-10-06T16:28:45.149Z,23.48
2018-10-06T16:31:15.885Z,23.47
2018-10-06T16:33:46.123Z,23.48
2018-10-06T16:36:17.050Z,23.48
2018-10-06T16:38:47.583Z,23.48
2018-10-06T16:41:18.073Z,23.47
2018-10-06T16:43:48.230Z,23.47
2018-10-06T16:46:19.273Z,23.47
2018-10-06T16:48:49.595Z,23.48
2018-10-06T16:51:19.722Z,23.48
2018-10-06T16:53:50.137Z,23.48
2018-10-06T16:56:21.291Z,23.48
2018-10-06T16:58:51.713Z,23.47
2018-10-06T17:01:22.172Z,23.47
2018-10-06T17:03:52.475Z,23.47
2018-10-06T17:06:22.842Z,23.47
2018-10-06T17:08:54.156Z,23.47
2018-10-06T17:11:24.674Z,23.47
2018-10-06T17:13:55.113Z,23.47
2018-10-06T17:16:25.323Z,23.46
2018-10-06T17:18:55.747Z,23.47
2018-10-06T17:21:26.591Z,23.46
2018-10-06T17:23:57.135Z,23.47
2018-10-06T17:26:27.761Z,23.47
2018-10-06T17:28:58.336Z,23.46
2018-10-06T17:31:29.030Z,23.47
2018-10-06T17:33:59.444Z,23.46
2018-10-06T17:36:30.078Z,23.48
2018-10-06T17:39:01.431Z,23.47
2018-10-06T17:41:32.163Z,23.47
2018-10-06T17:44:03.224Z,23.46
2018-10-06T17:46:34.152Z,23.47
2018-10-06T17:49:05.817Z,23.46
2018-10-06T17:51:36.853Z,23.46
2018-10-06T17:54:07.781Z,23.46
2018-10-06T17:56:38.755Z,23.47
2018-10-06T17:59:10.904Z,23.45
2018-10-06T18:01:41.730Z,23.46
2018-10-06T18:04:12.503Z,23.46
2018-10-06T18:06:43.100Z,23.44
2018-10-06T18:09:14.166Z,23.44
2018-10-06T18:11:44.492Z,23.45
2018-10-06T18:14:15.309Z,23.45
2018-10-06T18:16:46.245Z,23.45
2018-10-06T18:19:16.659Z,23.45
2018-10-06T18:21:47.314Z,23.46
2018-10-06T18:24:18.142Z,23.46
2018-10-06T18:26:49.080Z,23.47
2018-10-06T18:29:19.537Z,23.48
2018-10-06T18:31:51.468Z,23.48
2018-10-06T18:34:23.224Z,23.48
2018-10-06T18:36:54.056Z,23.47
2018-10-06T18:39:24.903Z,23.49
2018-10-06T18:41:55.639Z,23.49
2018-10-06T18:44:26.377Z,23.49
2018-10-06T18:46:56.702Z,23.51
2018-10-06T18:49:34.187Z,23.51
2018-10-06T18:52:04.526Z,23.52
2018-10-06T18:54:34.939Z,23.53
2018-10-06T18:57:06.601Z,23.51
2018-10-06T18:59:37.025Z,23.53
2018-10-06T19:02:07.458Z,23.52
2018-10-06T19:04:38.394Z,23.54
2018-10-06T19:07:09.033Z,23.55
2018-10-06T19:09:39.974Z,23.55
2018-10-06T19:12:11.013Z,23.56
2018-10-06T19:14:41.847Z,23.56
2018-10-06T19:17:13.415Z,23.58
2018-10-06T19:19:43.735Z,23.58
2018-10-06T19:22:14.255Z,23.57
2018-10-06T19:24:44.902Z,23.58
2018-10-06T19:27:15.321Z,23.58
2018-10-06T19:29:45.950Z,23.59
2018-10-06T19:32:16.687Z,23.59
2018-10-06T19:34:47.734Z,23.59
2018-10-06T19:37:18.260Z,23.60
2018-10-06T19:39:48.738Z,23.61
2018-10-06T19:42:19.425Z,23.60
2018-10-06T19:44:50.361Z,23.61
2018-10-06T19:47:21.096Z,23.60
2018-10-06T19:49:51.735Z,23.61
2018-10-06T19:52:22.061Z,23.61
2018-10-06T19:54:52.687Z,23.61
2018-10-06T19:57:24.036Z,23.62
2018-10-06T19:59:54.665Z,23.61
2018-10-06T20:02:25.095Z,23.63
2018-10-06T20:04:55.304Z,23.63
2018-10-06T20:07:26.164Z,23.63
2018-10-06T20:09:57.001Z,23.63
2018-10-06T20:12:27.980Z,23.64
2018-10-06T20:14:59.180Z,23.64
2018-10-06T20:17:30.126Z,23.59
2018-10-06T20:20:00.764Z,23.63
2018-10-06T20:22:31.373Z,23.63
2018-10-06T20:25:02.022Z,23.63
2018-10-06T20:27:32.346Z,23.65
2018-10-06T20:30:02.978Z,23.65
2018-10-06T20:32:33.613Z,23.65
2018-10-06T20:35:04.440Z,23.65
2018-10-06T20:37:35.182Z,23.64
2018-10-06T20:40:05.851Z,23.63
2018-10-06T20:42:36.536Z,23.64
2018-10-06T20:45:07.695Z,23.65
2018-10-06T20:47:38.630Z,23.66
2018-10-06T20:50:09.578Z,23.65
2018-10-06T20:52:40.310Z,23.66
2018-10-06T20:55:11.760Z,23.66
2018-10-06T20:57:42.207Z,23.66
2018-10-06T21:00:13.235Z,23.67
2018-10-06T21:02:43.650Z,23.66
2018-10-06T21:05:14.402Z,23.66
2018-10-06T21:07:45.338Z,23.67
2018-10-06T21:10:16.296Z,23.67
2018-10-06T21:12:47.536Z,23.68
2018-10-06T21:15:18.677Z,23.68
2018-10-06T21:20:25.257Z,23.66
2018-10-06T21:36:56.913Z,23.65
2018-10-06T21:39:33.380Z,23.65
2018-10-06T21:42:08.827Z,23.66
2018-10-06T21:44:44.683Z,23.66
2018-10-06T21:47:20.448Z,23.67
2018-10-06T21:49:56.708Z,23.67
2018-10-06T21:52:30.610Z,23.68
2018-10-06T21:55:03.393Z,23.68
2018-10-06T21:57:35.261Z,23.68
2018-10-06T22:00:07.627Z,23.69
2018-10-06T22:02:38.360Z,23.61
2018-10-06T22:05:08.985Z,23.70
2018-10-06T22:07:39.826Z,23.69
2018-10-06T22:10:10.565Z,23.70
2018-10-06T22:12:41.301Z,23.69
2018-10-06T22:15:12.079Z,23.70
2018-10-06T22:17:43.280Z,23.70
2018-10-06T22:20:14.421Z,23.69
2018-10-06T22:22:45.052Z,23.70
2018-10-06T22:25:16.191Z,23.70
2018-10-06T22:27:47.133Z,23.70
2018-10-06T22:30:17.776Z,23.70
2018-10-06T22:32:48.504Z,23.70
2018-10-06T22:35:20.369Z,23.70
2018-10-06T22:37:51.509Z,23.70
2018-10-06T22:40:22.660Z,23.69
2018-10-06T22:42:53.192Z,23.70
2018-10-06T22:45:23.719Z,23.69
2018-10-06T22:47:54.346Z,23.70
2018-10-06T22:50:25.186Z,23.67
2018-10-06T22:52:56.020Z,23.70
2018-10-06T22:55:26.769Z,23.69
2018-10-06T22:57:57.597Z,23.65
2018-10-06T23:00:28.539Z,23.69
2018-10-06T23:02:59.328Z,23.68
2018-10-06T23:05:29.906Z,23.68
2018-10-06T23:08:00.433Z,23.65
2018-10-06T23:10:30.971Z,23.68
2018-10-06T23:13:01.492Z,23.68
2018-10-06T23:15:32.021Z,23.67
2018-10-06T23:18:02.655Z,23.67
2018-10-06T23:20:33.485Z,23.67
2018-10-06T23:23:04.225Z,23.68
2018-10-06T23:25:34.968Z,23.67
2018-10-06T23:28:05.525Z,23.68
2018-10-06T23:30:36.343Z,23.68
2018-10-06T23:33:07.563Z,23.67
2018-10-06T23:35:40.057Z,23.68
2018-10-06T23:38:11.582Z,23.68
2018-10-06T23:40:42.450Z,23.68
2018-10-06T23:43:13.484Z,23.65
2018-10-06T23:45:44.333Z,23.69
2018-10-06T23:48:15.162Z,23.65
2018-10-06T23:50:45.683Z,23.68
2018-10-06T23:53:16.430Z,23.68
2018-10-06T23:55:47.261Z,23.69
2018-10-06T23:58:18.413Z,23.69
